sensor_id;sensor_type;location;lat;lon;timestamp;pressure;altitude;pressure_sealevel;temperature;humidity
21781;BME280;52576;53.614;9.894;2023-05-02T00:02:05;101299.72;;;10.36;72.74
21781;BME280;52576;53.614;9.894;2023-05-02T00:04:09;101294.50;;;10.36;73.09
21781;BME280;52576;53.614;9.894;2023-05-02T00:06:14;101299.72;;;10.36;73.29
21781;BME280;52576;53.614;9.894;2023-05-02T00:08:18;101295.34;;;10.37;73.56
21781;BME280;52576;53.614;9.894;2023-05-02T00:10:21;101296.19;;;10.37;73.91
21781;BME280;52576;53.614;9.894;2023-05-02T00:12:25;101297.88;;;10.38;73.98
21781;BME280;52576;53.614;9.894;2023-05-02T00:14:28;101294.50;;;10.36;74.29
21781;BME280;52576;53.614;9.894;2023-05-02T00:16:32;101293.56;;;10.37;74.74
21781;BME280;52576;53.614;9.894;2023-05-02T00:18:35;101296.19;;;10.37;74.95
21781;BME280;52576;53.614;9.894;2023-05-02T00:20:39;101297.88;;;10.38;75.04
21781;BME280;52576;53.614;9.894;2023-05-02T00:22:44;101297.88;;;10.38;75.39
21781;BME280;52576;53.614;9.894;2023-05-02T00:24:47;101297.88;;;10.38;75.65
21781;BME280;52576;53.614;9.894;2023-05-02T00:26:51;101294.31;;;10.39;76.01
21781;BME280;52576;53.614;9.894;2023-05-02T00:28:54;101292.63;;;10.38;76.27
21781;BME280;52576;53.614;9.894;2023-05-02T00:30:58;101296.19;;;10.37;76.58
21781;BME280;52576;53.614;9.894;2023-05-02T00:33:01;101301.41;;;10.37;76.69
21781;BME280;52576;53.614;9.894;2023-05-02T00:35:08;101293.66;;;10.36;77.04
21781;BME280;52576;53.614;9.894;2023-05-02T00:37:12;101293.66;;;10.36;77.23
21781;BME280;52576;53.614;9.894;2023-05-02T00:39:16;101299.72;;;10.36;77.24
21781;BME280;52576;53.614;9.894;2023-05-02T00:41:20;101299.72;;;10.36;77.35
21781;BME280;52576;53.614;9.894;2023-05-02T00:43:23;101308.53;;;10.35;77.50
21781;BME280;52576;53.614;9.894;2023-05-02T00:45:27;101303.28;;;10.35;77.58
21781;BME280;52576;53.614;9.894;2023-05-02T00:47:31;101301.41;;;10.37;77.58
21781;BME280;52576;53.614;9.894;2023-05-02T00:49:35;101298.78;;;10.37;77.70
21781;BME280;52576;53.614;9.894;2023-05-02T00:51:39;101296.19;;;10.37;77.67
21781;BME280;52576;53.614;9.894;2023-05-02T00:53:43;101299.56;;;10.39;77.93
21781;BME280;52576;53.614;9.894;2023-05-02T00:55:48;101301.22;;;10.40;77.96
21781;BME280;52576;53.614;9.894;2023-05-02T00:57:52;101297.66;;;10.41;78.06
21781;BME280;52576;53.614;9.894;2023-05-02T00:59:56;101300.28;;;10.41;77.99
21781;BME280;52576;53.614;9.894;2023-05-02T01:02:07;101304.69;;;10.41;78.21
21781;BME280;52576;53.614;9.894;2023-05-02T01:04:22;101297.75;;;10.40;78.37
21781;BME280;52576;53.614;9.894;2023-05-02T01:06:35;101303.94;;;10.39;78.53
21781;BME280;52576;53.614;9.894;2023-05-02T01:08:47;101297.09;;;10.36;78.70
21781;BME280;52576;53.614;9.894;2023-05-02T01:10:59;101304.22;;;10.34;79.03
21781;BME280;52576;53.614;9.894;2023-05-02T01:13:08;101301.00;;;10.29;79.41
21781;BME280;52576;53.614;9.894;2023-05-02T01:15:17;101303.88;;;10.25;79.52
21781;BME280;52576;53.614;9.894;2023-05-02T01:17:23;101299.75;;;10.20;79.86
21781;BME280;52576;53.614;9.894;2023-05-02T01:19:32;101303.34;;;10.18;80.15
21781;BME280;52576;53.614;9.894;2023-05-02T01:21:38;101300.06;;;10.14;80.42
21781;BME280;52576;53.614;9.894;2023-05-02T01:23:52;101302.88;;;10.11;80.66
21781;BME280;52576;53.614;9.894;2023-05-02T01:26:12;101296.97;;;10.08;80.87
21781;BME280;52576;53.614;9.894;2023-05-02T01:28:24;101301.44;;;10.06;81.22
21781;BME280;52576;53.614;9.894;2023-05-02T01:30:35;101306.84;;;10.03;81.22
21781;BME280;52576;53.614;9.894;2023-05-02T01:32:43;101310.38;;;10.02;81.36
21781;BME280;52576;53.614;9.894;2023-05-02T01:34:48;101303.47;;;10.01;81.71
21781;BME280;52576;53.614;9.894;2023-05-02T01:36:54;101306.16;;;9.99;81.78
21781;BME280;52576;53.614;9.894;2023-05-02T01:39:00;101303.63;;;9.98;81.90
21781;BME280;52576;53.614;9.894;2023-05-02T01:41:05;101303.63;;;9.98;81.91
21781;BME280;52576;53.614;9.894;2023-05-02T01:43:10;101307.25;;;9.95;82.13
21781;BME280;52576;53.614;9.894;2023-05-02T01:45:15;101314.28;;;9.95;82.39
21781;BME280;52576;53.614;9.894;2023-05-02T01:47:20;101312.56;;;9.94;82.43
21781;BME280;52576;53.614;9.894;2023-05-02T01:49:26;101311.81;;;9.92;82.65
21781;BME280;52576;53.614;9.894;2023-05-02T01:51:33;101312.09;;;9.87;82.94
21781;BME280;52576;53.614;9.894;2023-05-02T01:53:37;101316.66;;;9.83;83.05
21781;BME280;52576;53.614;9.894;2023-05-02T01:55:43;101315.97;;;9.80;83.15
21781;BME280;52576;53.614;9.894;2023-05-02T01:57:49;101316.97;;;9.77;83.41
21781;BME280;52576;53.614;9.894;2023-05-02T01:59:56;101314.44;;;9.76;83.74
21781;BME280;52576;53.614;9.894;2023-05-02T02:02:00;101327.63;;;9.74;83.88
21781;BME280;52576;53.614;9.894;2023-05-02T02:04:08;101330.22;;;9.74;84.06
21781;BME280;52576;53.614;9.894;2023-05-02T02:06:13;101325.94;;;9.73;84.24
21781;BME280;52576;53.614;9.894;2023-05-02T02:08:18;101329.47;;;9.72;84.29
21781;BME280;52576;53.614;9.894;2023-05-02T02:10:25;101327.78;;;9.71;84.45
21781;BME280;52576;53.614;9.894;2023-05-02T02:12:38;101326.09;;;9.70;84.18
21781;BME280;52576;53.614;9.894;2023-05-02T02:14:47;101337.41;;;9.71;84.34
21781;BME280;52576;53.614;9.894;2023-05-02T02:16:55;101334.78;;;9.71;84.50
21781;BME280;52576;53.614;9.894;2023-05-02T02:19:05;101341.78;;;9.70;84.46
21781;BME280;52576;53.614;9.894;2023-05-02T02:21:15;101338.25;;;9.71;84.26
21781;BME280;52576;53.614;9.894;2023-05-02T02:23:22;101347.03;;;9.70;84.19
21781;BME280;52576;53.614;9.894;2023-05-02T02:25:27;101347.03;;;9.70;84.12
21781;BME280;52576;53.614;9.894;2023-05-02T02:27:31;101349.72;;;9.69;84.14
21781;BME280;52576;53.614;9.894;2023-05-02T02:29:35;101357.50;;;9.70;84.12
21781;BME280;52576;53.614;9.894;2023-05-02T02:31:38;101366.28;;;9.69;83.97
21781;BME280;52576;53.614;9.894;2023-05-02T02:33:42;101380.28;;;9.68;83.89
21781;BME280;52576;53.614;9.894;2023-05-02T02:35:51;101372.69;;;9.64;83.90
21781;BME280;52576;53.614;9.894;2023-05-02T02:38:01;101369.50;;;9.59;83.91
21781;BME280;52576;53.614;9.894;2023-05-02T02:40:17;101388.97;;;9.53;83.82
21781;BME280;52576;53.614;9.894;2023-05-02T02:42:28;101400.69;;;9.46;83.49
21781;BME280;52576;53.614;9.894;2023-05-02T02:44:42;101393.22;;;9.38;83.08
21781;BME280;52576;53.614;9.894;2023-05-02T02:46:55;101398.88;;;9.31;82.76
21781;BME280;52576;53.614;9.894;2023-05-02T02:49:15;101399.09;;;9.26;82.82
21781;BME280;52576;53.614;9.894;2023-05-02T02:51:28;101409.88;;;9.20;82.10
21781;BME280;52576;53.614;9.894;2023-05-02T02:53:43;101421.47;;;9.14;81.84
21781;BME280;52576;53.614;9.894;2023-05-02T02:56:00;101420.03;;;9.09;81.67
21781;BME280;52576;53.614;9.894;2023-05-02T02:58:14;101424.72;;;9.02;81.14
21781;BME280;52576;53.614;9.894;2023-05-02T03:00:23;101438.09;;;8.96;80.71
21781;BME280;52576;53.614;9.894;2023-05-02T03:02:29;101438.53;;;8.87;79.83
21781;BME280;52576;53.614;9.894;2023-05-02T03:04:38;101445.94;;;8.79;79.13
21781;BME280;52576;53.614;9.894;2023-05-02T03:06:43;101453.28;;;8.71;78.77
21781;BME280;52576;53.614;9.894;2023-05-02T03:08:48;101451.88;;;8.64;78.23
21781;BME280;52576;53.614;9.894;2023-05-02T03:10:53;101467.84;;;8.58;77.73
21781;BME280;52576;53.614;9.894;2023-05-02T03:12:57;101469.13;;;8.49;77.70
21781;BME280;52576;53.614;9.894;2023-05-02T03:15:13;101470.28;;;8.43;77.29
21781;BME280;52576;53.614;9.894;2023-05-02T03:17:19;101481.78;;;8.39;76.95
21781;BME280;52576;53.614;9.894;2023-05-02T03:19:25;101488.91;;;8.36;76.91
21781;BME280;52576;53.614;9.894;2023-05-02T03:21:30;101490.81;;;8.32;76.96
21781;BME280;52576;53.614;9.894;2023-05-02T03:23:40;101497.06;;;8.28;76.71
21781;BME280;52576;53.614;9.894;2023-05-02T03:25:45;101502.72;;;8.19;76.75
21781;BME280;52576;53.614;9.894;2023-05-02T03:27:56;101510.81;;;8.13;76.95
21781;BME280;52576;53.614;9.894;2023-05-02T03:30:00;101502.41;;;8.06;77.04
21781;BME280;52576;53.614;9.894;2023-05-02T03:32:05;101508.63;;;8.04;76.95
21781;BME280;52576;53.614;9.894;2023-05-02T03:34:11;101512.28;;;8.00;76.94
21781;BME280;52576;53.614;9.894;2023-05-02T03:36:16;101521.94;;;7.98;77.09
21781;BME280;52576;53.614;9.894;2023-05-02T03:38:19;101512.41;;;7.97;77.13
21781;BME280;52576;53.614;9.894;2023-05-02T03:40:24;101522.84;;;7.97;77.06
21781;BME280;52576;53.614;9.894;2023-05-02T03:42:33;101531.59;;;7.96;76.47
21781;BME280;52576;53.614;9.894;2023-05-02T03:44:45;101525.59;;;7.94;76.02
21781;BME280;52576;53.614;9.894;2023-05-02T03:46:49;101526.66;;;7.90;75.54
21781;BME280;52576;53.614;9.894;2023-05-02T03:48:52;101542.44;;;7.87;75.26
21781;BME280;52576;53.614;9.894;2023-05-02T03:50:56;101544.25;;;7.84;75.11
21781;BME280;52576;53.614;9.894;2023-05-02T03:53:00;101548.75;;;7.81;75.04
21781;BME280;52576;53.614;9.894;2023-05-02T03:55:13;101543.69;;;7.78;74.20
21781;BME280;52576;53.614;9.894;2023-05-02T03:57:16;101545.59;;;7.74;73.85
21781;BME280;52576;53.614;9.894;2023-05-02T03:59:21;101553.53;;;7.71;73.37
21781;BME280;52576;53.614;9.894;2023-05-02T04:01:25;101551.97;;;7.67;72.92
21781;BME280;52576;53.614;9.894;2023-05-02T04:03:30;101555.63;;;7.63;72.91
21781;BME280;52576;53.614;9.894;2023-05-02T04:05:35;101558.28;;;7.62;72.70
21781;BME280;52576;53.614;9.894;2023-05-02T04:07:39;101559.25;;;7.59;72.14
21781;BME280;52576;53.614;9.894;2023-05-02T04:09:42;101568.91;;;7.57;72.01
21781;BME280;52576;53.614;9.894;2023-05-02T04:11:47;101576.81;;;7.56;70.88
21781;BME280;52576;53.614;9.894;2023-05-02T04:13:51;101575.19;;;7.53;70.96
21781;BME280;52576;53.614;9.894;2023-05-02T04:15:56;101584.84;;;7.51;70.78
21781;BME280;52576;53.614;9.894;2023-05-02T04:18:03;101592.66;;;7.51;70.62
21781;BME280;52576;53.614;9.894;2023-05-02T04:20:10;101588.41;;;7.48;70.39
21781;BME280;52576;53.614;9.894;2023-05-02T04:22:17;101607.59;;;7.47;69.90
21781;BME280;52576;53.614;9.894;2023-05-02T04:24:26;101599.81;;;7.46;69.65
21781;BME280;52576;53.614;9.894;2023-05-02T04:26:31;101599.94;;;7.43;69.36
21781;BME280;52576;53.614;9.894;2023-05-02T04:28:40;101602.63;;;7.41;69.35
21781;BME280;52576;53.614;9.894;2023-05-02T04:30:45;101614.81;;;7.41;69.14
21781;BME280;52576;53.614;9.894;2023-05-02T04:32:50;101613.06;;;7.41;69.07
21781;BME280;52576;53.614;9.894;2023-05-02T04:34:54;101615.59;;;7.43;68.77
21781;BME280;52576;53.614;9.894;2023-05-02T04:36:59;101618.22;;;7.43;68.70
21781;BME280;52576;53.614;9.894;2023-05-02T04:39:04;101615.66;;;7.41;68.56
21781;BME280;52576;53.614;9.894;2023-05-02T04:41:11;101614.88;;;7.39;68.32
21781;BME280;52576;53.614;9.894;2023-05-02T04:43:20;101631.38;;;7.40;68.41
21781;BME280;52576;53.614;9.894;2023-05-02T04:45:31;101640.09;;;7.39;68.27
21781;BME280;52576;53.614;9.894;2023-05-02T04:47:34;101630.56;;;7.38;68.52
21781;BME280;52576;53.614;9.894;2023-05-02T04:49:39;101640.09;;;7.39;68.32
21781;BME280;52576;53.614;9.894;2023-05-02T04:51:44;101647.00;;;7.40;68.29
21781;BME280;52576;53.614;9.894;2023-05-02T04:53:48;101646.91;;;7.43;68.20
21781;BME280;52576;53.614;9.894;2023-05-02T04:55:53;101653.81;;;7.44;68.30
21781;BME280;52576;53.614;9.894;2023-05-02T04:57:57;101658.97;;;7.45;68.18
21781;BME280;52576;53.614;9.894;2023-05-02T05:00:01;101666.72;;;7.47;68.05
21781;BME280;52576;53.614;9.894;2023-05-02T05:02:05;101662.38;;;7.47;67.96
21781;BME280;52576;53.614;9.894;2023-05-02T05:04:10;101667.59;;;7.47;67.79
21781;BME280;52576;53.614;9.894;2023-05-02T05:06:15;101674.56;;;7.47;67.89
21781;BME280;52576;53.614;9.894;2023-05-02T05:08:19;101669.34;;;7.47;67.60
21781;BME280;52576;53.614;9.894;2023-05-02T05:10:23;101674.56;;;7.47;67.34
21781;BME280;52576;53.614;9.894;2023-05-02T05:12:26;101678.06;;;7.46;67.11
21781;BME280;52576;53.614;9.894;2023-05-02T05:14:29;101685.13;;;7.44;66.83
21781;BME280;52576;53.614;9.894;2023-05-02T05:16:33;101689.59;;;7.40;66.71
21781;BME280;52576;53.614;9.894;2023-05-02T05:18:37;101686.19;;;7.38;66.67
21781;BME280;52576;53.614;9.894;2023-05-02T05:20:45;101694.06;;;7.37;66.67
21781;BME280;52576;53.614;9.894;2023-05-02T05:22:49;101688.97;;;7.34;66.35
21781;BME280;52576;53.614;9.894;2023-05-02T05:24:54;101695.09;;;7.33;66.21
21781;BME280;52576;53.614;9.894;2023-05-02T05:27:03;101694.31;;;7.31;66.17
21781;BME280;52576;53.614;9.894;2023-05-02T05:29:06;101698.81;;;7.27;65.99
21781;BME280;52576;53.614;9.894;2023-05-02T05:31:14;101699.78;;;7.25;66.16
21781;BME280;52576;53.614;9.894;2023-05-02T05:33:21;101707.66;;;7.23;66.07
21781;BME280;52576;53.614;9.894;2023-05-02T05:35:25;101712.03;;;7.23;66.19
21781;BME280;52576;53.614;9.894;2023-05-02T05:37:30;101713.84;;;7.21;66.09
21781;BME280;52576;53.614;9.894;2023-05-02T05:39:37;101720.75;;;7.22;65.87
21781;BME280;52576;53.614;9.894;2023-05-02T05:41:40;101724.25;;;7.21;65.68
21781;BME280;52576;53.614;9.894;2023-05-02T05:43:46;101720.00;;;7.18;65.71
21781;BME280;52576;53.614;9.894;2023-05-02T05:45:50;101722.69;;;7.17;65.55
21781;BME280;52576;53.614;9.894;2023-05-02T05:47:54;101734.81;;;7.18;65.79
21781;BME280;52576;53.614;9.894;2023-05-02T05:50:00;101729.59;;;7.18;65.83
21781;BME280;52576;53.614;9.894;2023-05-02T05:52:05;101746.94;;;7.19;65.60
21781;BME280;52576;53.614;9.894;2023-05-02T05:54:09;101745.22;;;7.18;65.03
21781;BME280;52576;53.614;9.894;2023-05-02T05:56:15;101742.69;;;7.16;64.12
21781;BME280;52576;53.614;9.894;2023-05-02T05:58:27;101753.16;;;7.14;63.97
21781;BME280;52576;53.614;9.894;2023-05-02T06:00:32;101746.25;;;7.13;63.38
21781;BME280;52576;53.614;9.894;2023-05-02T06:02:36;101750.56;;;7.14;63.03
21781;BME280;52576;53.614;9.894;2023-05-02T06:04:40;101762.69;;;7.15;62.52
21781;BME280;52576;53.614;9.894;2023-05-02T06:06:44;101766.09;;;7.18;62.06
21781;BME280;52576;53.614;9.894;2023-05-02T06:08:47;101768.59;;;7.21;61.89
21781;BME280;52576;53.614;9.894;2023-05-02T06:10:51;101755.44;;;7.24;61.69
21781;BME280;52576;53.614;9.894;2023-05-02T06:12:56;101764.06;;;7.26;61.84
21781;BME280;52576;53.614;9.894;2023-05-02T06:15:05;101770.84;;;7.30;61.56
21781;BME280;52576;53.614;9.894;2023-05-02T06:17:09;101772.44;;;7.34;61.85
21781;BME280;52576;53.614;9.894;2023-05-02T06:19:12;101782.75;;;7.37;61.60
21781;BME280;52576;53.614;9.894;2023-05-02T06:21:16;101782.63;;;7.40;61.24
21781;BME280;52576;53.614;9.894;2023-05-02T06:23:20;101784.44;;;7.38;60.90
21781;BME280;52576;53.614;9.894;2023-05-02T06:25:24;101782.69;;;7.38;61.26
21781;BME280;52576;53.614;9.894;2023-05-02T06:27:27;101786.16;;;7.39;60.92
21781;BME280;52576;53.614;9.894;2023-05-02T06:29:35;101778.31;;;7.39;60.52
21781;BME280;52576;53.614;9.894;2023-05-02T06:31:39;101794.03;;;7.37;60.37
21781;BME280;52576;53.614;9.894;2023-05-02T06:33:43;101806.28;;;7.35;60.52
21781;BME280;52576;53.614;9.894;2023-05-02T06:35:50;101807.13;;;7.36;60.69
21781;BME280;52576;53.614;9.894;2023-05-02T06:37:53;101806.34;;;7.34;60.74
21781;BME280;52576;53.614;9.894;2023-05-02T06:39:56;101821.97;;;7.34;60.33
21781;BME280;52576;53.614;9.894;2023-05-02T06:42:00;101822.88;;;7.33;60.19
21781;BME280;52576;53.614;9.894;2023-05-02T06:44:05;101818.47;;;7.35;59.71
21781;BME280;52576;53.614;9.894;2023-05-02T06:46:10;101821.94;;;7.35;59.28
21781;BME280;52576;53.614;9.894;2023-05-02T06:48:13;101834.00;;;7.38;58.95
21781;BME280;52576;53.614;9.894;2023-05-02T06:50:17;101839.16;;;7.39;58.64
21781;BME280;52576;53.614;9.894;2023-05-02T06:52:20;101842.63;;;7.40;58.50
21781;BME280;52576;53.614;9.894;2023-05-02T06:54:24;101835.66;;;7.40;58.26
21781;BME280;52576;53.614;9.894;2023-05-02T06:56:28;101843.41;;;7.42;57.92
21781;BME280;52576;53.614;9.894;2023-05-02T06:58:32;101854.59;;;7.45;57.81
21781;BME280;52576;53.614;9.894;2023-05-02T07:00:35;101851.09;;;7.46;57.26
21781;BME280;52576;53.614;9.894;2023-05-02T07:02:40;101859.72;;;7.48;57.09
21781;BME280;52576;53.614;9.894;2023-05-02T07:04:43;101862.25;;;7.50;56.73
21781;BME280;52576;53.614;9.894;2023-05-02T07:06:47;101864.75;;;7.53;56.25
21781;BME280;52576;53.614;9.894;2023-05-02T07:08:51;101864.75;;;7.53;55.52
21781;BME280;52576;53.614;9.894;2023-05-02T07:10:54;101863.91;;;7.53;55.72
21781;BME280;52576;53.614;9.894;2023-05-02T07:12:58;101874.25;;;7.54;55.66
21781;BME280;52576;53.614;9.894;2023-05-02T07:15:01;101874.25;;;7.54;55.93
21781;BME280;52576;53.614;9.894;2023-05-02T07:17:05;101879.38;;;7.57;55.49
21781;BME280;52576;53.614;9.894;2023-05-02T07:19:10;101880.06;;;7.62;54.93
21781;BME280;52576;53.614;9.894;2023-05-02T07:21:13;101878.13;;;7.67;54.66
21781;BME280;52576;53.614;9.894;2023-05-02T07:23:17;101879.72;;;7.71;54.03
21781;BME280;52576;53.614;9.894;2023-05-02T07:25:21;101878.72;;;7.75;54.03
21781;BME280;52576;53.614;9.894;2023-05-02T07:27:24;101880.41;;;7.76;54.02
21781;BME280;52576;53.614;9.894;2023-05-02T07:29:28;101885.53;;;7.79;54.33
21781;BME280;52576;53.614;9.894;2023-05-02T07:31:31;101891.41;;;7.84;54.24
21781;BME280;52576;53.614;9.894;2023-05-02T07:33:35;101891.22;;;7.89;54.34
21781;BME280;52576;53.614;9.894;2023-05-02T07:35:40;101896.22;;;7.95;54.23
21781;BME280;52576;53.614;9.894;2023-05-02T07:37:43;101902.13;;;8.00;54.23
21781;BME280;52576;53.614;9.894;2023-05-02T07:39:46;101904.47;;;8.06;53.63
21781;BME280;52576;53.614;9.894;2023-05-02T07:41:50;101904.41;;;8.08;52.97
21781;BME280;52576;53.614;9.894;2023-05-02T07:43:53;101907.03;;;8.08;52.88
21781;BME280;52576;53.614;9.894;2023-05-02T07:46:03;101917.47;;;8.08;52.79
21781;BME280;52576;53.614;9.894;2023-05-02T07:48:06;101907.03;;;8.08;52.49
21781;BME280;52576;53.614;9.894;2023-05-02T07:50:10;101907.03;;;8.08;52.68
21781;BME280;52576;53.614;9.894;2023-05-02T07:52:15;101920.03;;;8.09;52.79
21781;BME280;52576;53.614;9.894;2023-05-02T07:54:19;101921.63;;;8.13;52.51
21781;BME280;52576;53.614;9.894;2023-05-02T07:56:23;101906.56;;;8.20;52.26
21781;BME280;52576;53.614;9.894;2023-05-02T07:58:26;101911.69;;;8.23;51.90
21781;BME280;52576;53.614;9.894;2023-05-02T08:00:30;101906.34;;;8.26;51.81
21781;BME280;52576;53.614;9.894;2023-05-02T08:02:33;101914.97;;;8.28;52.12
21781;BME280;52576;53.614;9.894;2023-05-02T08:04:38;101915.69;;;8.32;52.38
21781;BME280;52576;53.614;9.894;2023-05-02T08:06:43;101916.31;;;8.38;51.77
21781;BME280;52576;53.614;9.894;2023-05-02T08:08:48;101926.53;;;8.44;51.68
21781;BME280;52576;53.614;9.894;2023-05-02T08:10:51;101922.91;;;8.48;51.62
21781;BME280;52576;53.614;9.894;2023-05-02T08:12:55;101933.13;;;8.55;51.50
21781;BME280;52576;53.614;9.894;2023-05-02T08:14:58;101932.97;;;8.58;51.26
21781;BME280;52576;53.614;9.894;2023-05-02T08:17:01;101940.63;;;8.62;51.44
21781;BME280;52576;53.614;9.894;2023-05-02T08:19:05;101951.69;;;8.69;51.32
21781;BME280;52576;53.614;9.894;2023-05-02T08:21:09;101949.75;;;8.74;51.11
21781;BME280;52576;53.614;9.894;2023-05-02T08:23:13;101952.31;;;8.75;50.96
21781;BME280;52576;53.614;9.894;2023-05-02T08:25:18;101950.59;;;8.74;51.11
21781;BME280;52576;53.614;9.894;2023-05-02T08:27:21;101952.31;;;8.75;50.89
21781;BME280;52576;53.614;9.894;2023-05-02T08:29:24;101960.22;;;8.74;50.74
21781;BME280;52576;53.614;9.894;2023-05-02T08:31:28;101961.13;;;8.73;51.12
21781;BME280;52576;53.614;9.894;2023-05-02T08:33:31;101965.31;;;8.77;51.00
21781;BME280;52576;53.614;9.894;2023-05-02T08:35:35;101972.13;;;8.81;50.71
21781;BME280;52576;53.614;9.894;2023-05-02T08:37:38;101966.75;;;8.84;50.46
21781;BME280;52576;53.614;9.894;2023-05-02T08:39:42;101964.81;;;8.89;50.54
21781;BME280;52576;53.614;9.894;2023-05-02T08:41:46;101975.88;;;8.96;50.48
21781;BME280;52576;53.614;9.894;2023-05-02T08:43:50;101966.03;;;9.02;50.17
21781;BME280;52576;53.614;9.894;2023-05-02T08:45:57;101969.31;;;9.07;50.30
21781;BME280;52576;53.614;9.894;2023-05-02T08:48:05;101975.94;;;9.14;50.30
21781;BME280;52576;53.614;9.894;2023-05-02T08:50:09;101975.59;;;9.24;50.15
21781;BME280;52576;53.614;9.894;2023-05-02T08:52:13;101983.97;;;9.32;49.68
21781;BME280;52576;53.614;9.894;2023-05-02T08:54:19;101984.59;;;9.37;49.13
21781;BME280;52576;53.614;9.894;2023-05-02T08:56:23;101983.56;;;9.41;48.57
21781;BME280;52576;53.614;9.894;2023-05-02T08:58:28;101982.50;;;9.45;48.72
21781;BME280;52576;53.614;9.894;2023-05-02T09:00:37;101985.53;;;9.56;48.52
21781;BME280;52576;53.614;9.894;2023-05-02T09:02:52;101980.78;;;9.64;48.47
21781;BME280;52576;53.614;9.894;2023-05-02T09:05:02;101985.78;;;9.70;48.62
21781;BME280;52576;53.614;9.894;2023-05-02T09:07:08;101987.34;;;9.74;48.19
21781;BME280;52576;53.614;9.894;2023-05-02T09:09:14;101981.13;;;9.77;47.93
21781;BME280;52576;53.614;9.894;2023-05-02T09:11:20;101989.75;;;9.79;47.59
21781;BME280;52576;53.614;9.894;2023-05-02T09:13:29;101999.25;;;9.81;47.58
21781;BME280;52576;53.614;9.894;2023-05-02T09:15:32;101990.19;;;9.88;47.41
21781;BME280;52576;53.614;9.894;2023-05-02T09:17:40;101998.44;;;10.00;47.67
21781;BME280;52576;53.614;9.894;2023-05-02T09:19:44;101990.78;;;10.14;47.51
21781;BME280;52576;53.614;9.894;2023-05-02T09:21:47;101992.75;;;10.29;47.46
21781;BME280;52576;53.614;9.894;2023-05-02T09:23:53;101996.66;;;10.39;47.35
21781;BME280;52576;53.614;9.894;2023-05-02T09:25:57;102009.75;;;10.39;47.53
21781;BME280;52576;53.614;9.894;2023-05-02T09:28:01;101996.09;;;10.33;48.05
21781;BME280;52576;53.614;9.894;2023-05-02T09:30:22;102002.44;;;10.27;48.45
21781;BME280;52576;53.614;9.894;2023-05-02T09:32:43;102007.56;;;10.30;48.84
21781;BME280;52576;53.614;9.894;2023-05-02T09:35:06;102008.34;;;10.32;48.71
21781;BME280;52576;53.614;9.894;2023-05-02T09:37:09;102011.03;;;10.31;48.84
21781;BME280;52576;53.614;9.894;2023-05-02T09:39:16;102009.97;;;10.35;48.71
21781;BME280;52576;53.614;9.894;2023-05-02T09:41:20;102017.31;;;10.45;48.20
21781;BME280;52576;53.614;9.894;2023-05-02T09:43:23;102014.91;;;10.60;47.71
21781;BME280;52576;53.614;9.894;2023-05-02T09:45:28;102023.09;;;10.71;46.99
21781;BME280;52576;53.614;9.894;2023-05-02T09:47:31;102020.34;;;10.74;46.96
21781;BME280;52576;53.614;9.894;2023-05-02T09:49:39;102028.06;;;10.77;47.33
21781;BME280;52576;53.614;9.894;2023-05-02T09:51:43;102035.78;;;10.80;47.12
21781;BME280;52576;53.614;9.894;2023-05-02T09:53:48;102026.28;;;10.77;47.38
21781;BME280;52576;53.614;9.894;2023-05-02T09:56:02;102038.69;;;10.74;47.89
21781;BME280;52576;53.614;9.894;2023-05-02T09:58:05;102026.66;;;10.70;47.76
21781;BME280;52576;53.614;9.894;2023-05-02T10:00:10;102039.16;;;10.65;48.00
21781;BME280;52576;53.614;9.894;2023-05-02T10:02:17;102043.88;;;10.57;48.53
21781;BME280;52576;53.614;9.894;2023-05-02T10:04:23;102039.00;;;10.49;48.68
21781;BME280;52576;53.614;9.894;2023-05-02T10:06:27;102041.81;;;10.44;48.89
21781;BME280;52576;53.614;9.894;2023-05-02T10:08:32;102051.69;;;10.39;49.04
21781;BME280;52576;53.614;9.894;2023-05-02T10:10:36;102042.41;;;10.32;49.01
21781;BME280;52576;53.614;9.894;2023-05-02T10:12:40;102046.84;;;10.30;48.86
21781;BME280;52576;53.614;9.894;2023-05-02T10:14:47;102033.81;;;10.29;48.76
21781;BME280;52576;53.614;9.894;2023-05-02T10:16:54;102052.09;;;10.30;48.79
21781;BME280;52576;53.614;9.894;2023-05-02T10:19:06;102036.03;;;10.38;48.96
21781;BME280;52576;53.614;9.894;2023-05-02T10:21:11;102037.59;;;10.61;48.72
21781;BME280;52576;53.614;9.894;2023-05-02T10:23:16;102041.81;;;10.82;47.78
21781;BME280;52576;53.614;9.894;2023-05-02T10:25:20;102044.63;;;10.96;46.90
21781;BME280;52576;53.614;9.894;2023-05-02T10:27:24;102050.41;;;11.03;46.65
21781;BME280;52576;53.614;9.894;2023-05-02T10:29:28;102042.63;;;11.01;46.52
21781;BME280;52576;53.614;9.894;2023-05-02T10:31:33;102038.53;;;10.96;46.90
21781;BME280;52576;53.614;9.894;2023-05-02T10:33:39;102051.16;;;10.87;47.23
21781;BME280;52576;53.614;9.894;2023-05-02T10:35:44;102056.00;;;10.78;47.73
21781;BME280;52576;53.614;9.894;2023-05-02T10:37:49;102059.94;;;10.68;47.93
21781;BME280;52576;53.614;9.894;2023-05-02T10:39:53;102055.41;;;10.71;48.11
21781;BME280;52576;53.614;9.894;2023-05-02T10:41:58;102062.50;;;10.88;48.00
21781;BME280;52576;53.614;9.894;2023-05-02T10:44:03;102065.16;;;11.05;47.27
21781;BME280;52576;53.614;9.894;2023-05-02T10:46:30;102062.03;;;11.16;46.83
21781;BME280;52576;53.614;9.894;2023-05-02T10:48:34;102064.72;;;11.14;46.99
21781;BME280;52576;53.614;9.894;2023-05-02T10:50:45;102063.19;;;11.10;46.87
21781;BME280;52576;53.614;9.894;2023-05-02T10:52:48;102063.53;;;11.03;47.08
21781;BME280;52576;53.614;9.894;2023-05-02T10:55:12;102072.88;;;10.91;47.91
21781;BME280;52576;53.614;9.894;2023-05-02T10:57:16;102088.88;;;10.85;48.44
21781;BME280;52576;53.614;9.894;2023-05-02T10:59:26;102077.59;;;10.83;48.53
21781;BME280;52576;53.614;9.894;2023-05-02T11:01:34;102081.22;;;10.80;48.32
21781;BME280;52576;53.614;9.894;2023-05-02T11:03:54;102087.31;;;10.81;48.69
21781;BME280;52576;53.614;9.894;2023-05-02T11:06:06;102089.72;;;10.85;49.12